Time;durP1;ratioP1;P1;durP2;ratioP2;P2;SDS_P1;SDS_P2;PMS_P1;PMS_P2;Temp;Humidity;BMP_temperature;BMP_pressure;BME280_temperature;BME280_humidity;BME280_pressure;Samples;Min_cycle;Max_cycle;Signal;HPM_P1;HPM_P2
2024/02/18 00:05:51;;;;;;;113.53;102.90;;;9.00;99.90;;;;;;12572413;28;20055;-35
2024/02/18 00:11:53;;;;;;;117.25;106.35;;;9.00;99.90;;;;;;12578544;28;20522;-35
2024/02/18 00:17:55;;;;;;;116.82;105.63;;;9.00;99.90;;;;;;12576257;28;20048;-35
2024/02/18 00:23:57;;;;;;;120.70;109.55;;;8.80;99.90;;;;;;12565135;28;20048;-35
2024/02/18 00:29:59;;;;;;;120.22;109.85;;;8.80;99.90;;;;;;12546117;28;20481;-36
2024/02/18 00:36:01;;;;;;;118.53;108.10;;;8.60;99.90;;;;;;12566499;28;20048;-35
2024/02/18 00:42:03;;;;;;;121.35;110.38;;;8.60;99.90;;;;;;12536753;28;20425;-35
2024/02/18 00:48:05;;;;;;;125.82;114.60;;;8.40;99.90;;;;;;12560705;28;20075;-34
2024/02/18 00:54:07;;;;;;;120.50;109.70;;;8.40;99.90;;;;;;12560014;28;20040;-35
2024/02/18 01:00:10;;;;;;;121.60;110.88;;;8.40;99.90;;;;;;12537625;28;20080;-35
2024/02/18 01:06:12;;;;;;;127.13;115.38;;;8.30;99.90;;;;;;12554061;28;20049;-35
2024/02/18 01:12:14;;;;;;;120.68;110.00;;;8.20;99.90;;;;;;12568055;28;20056;-35
2024/02/18 01:18:16;;;;;;;116.03;105.55;;;8.30;99.90;;;;;;12542240;28;20064;-35
2024/02/18 01:24:18;;;;;;;112.82;102.20;;;8.30;99.90;;;;;;12565044;28;20190;-35
2024/02/18 01:30:20;;;;;;;117.35;106.75;;;8.20;99.90;;;;;;12576273;28;20056;-35
2024/02/18 01:36:22;;;;;;;110.85;100.60;;;8.20;99.90;;;;;;12554789;28;20053;-35
2024/02/18 01:42:23;;;;;;;109.45;99.28;;;8.30;99.90;;;;;;12567065;28;20052;-35
2024/02/18 01:48:26;;;;;;;110.10;99.93;;;8.20;99.90;;;;;;12563410;28;21354;-35
2024/02/18 01:54:33;;;;;;;109.97;99.55;;;8.30;99.90;;;;;;12570934;28;20194;-35
2024/02/18 02:00:39;;;;;;;114.78;104.45;;;8.30;99.90;;;;;;12560024;28;20053;-35
2024/02/18 02:06:42;;;;;;;118.63;108.53;;;8.40;99.90;;;;;;12590474;28;20422;-35
2024/02/18 02:12:44;;;;;;;119.85;110.07;;;8.40;99.90;;;;;;12576597;28;20041;-35
2024/02/18 02:18:46;;;;;;;109.38;100.10;;;8.50;99.90;;;;;;12593194;28;20057;-34
2024/02/18 02:24:48;;;;;;;121.47;111.53;;;8.50;99.90;;;;;;12539796;28;20052;-35
2024/02/18 02:30:51;;;;;;;116.93;107.30;;;8.60;99.90;;;;;;12574730;28;20040;-35
2024/02/18 02:36:53;;;;;;;126.68;117.05;;;8.60;99.90;;;;;;12575901;28;20391;-35
2024/02/18 02:42:55;;;;;;;129.50;119.93;;;8.60;99.90;;;;;;12573801;28;20409;-35
2024/02/18 02:48:57;;;;;;;116.85;107.75;;;8.60;99.90;;;;;;12582953;28;20048;-35
2024/02/18 02:54:59;;;;;;;116.32;107.57;;;8.60;99.90;;;;;;12576680;28;20048;-34
2024/02/18 03:01:01;;;;;;;117.38;109.13;;;8.60;99.90;;;;;;12595890;28;20105;-36
2024/02/18 03:07:03;;;;;;;120.35;111.47;;;8.60;99.90;;;;;;12574395;28;20049;-35
2024/02/18 03:13:05;;;;;;;119.28;110.85;;;8.70;99.90;;;;;;12579198;28;20542;-35
2024/02/18 03:19:07;;;;;;;120.00;111.75;;;8.70;99.90;;;;;;12578081;28;20063;-35
2024/02/18 03:25:09;;;;;;;115.60;107.68;;;8.70;99.90;;;;;;12573338;28;20409;-35
2024/02/18 03:31:17;;;;;;;118.95;110.88;;;8.70;99.90;;;;;;12536554;28;20455;-35
2024/02/18 03:37:19;;;;;;;115.90;107.90;;;8.70;99.90;;;;;;12565843;28;20056;-35
2024/02/18 03:43:21;;;;;;;119.38;111.40;;;8.70;99.90;;;;;;12566009;28;20094;-36
2024/02/18 03:49:23;;;;;;;116.95;109.40;;;8.60;99.90;;;;;;12571894;28;20120;-36
2024/02/18 03:55:26;;;;;;;115.32;107.60;;;8.60;99.90;;;;;;12574090;28;20047;-35
2024/02/18 04:01:28;;;;;;;114.85;107.45;;;8.60;99.90;;;;;;12542109;28;20052;-35
2024/02/18 04:07:30;;;;;;;114.00;106.68;;;8.50;99.90;;;;;;12570453;28;20049;-35
2024/02/18 04:13:32;;;;;;;115.88;108.43;;;8.60;99.90;;;;;;12571359;28;20040;-34
2024/02/18 04:19:34;;;;;;;111.65;104.35;;;8.60;99.90;;;;;;12573548;28;20052;-35
2024/02/18 04:25:36;;;;;;;107.65;100.70;;;8.60;99.90;;;;;;12565062;28;20864;-35
2024/02/18 04:31:40;;;;;;;104.28;97.65;;;8.60;99.90;;;;;;12560226;28;20063;-34
2024/02/18 04:37:42;;;;;;;;;;;8.70;99.90;;;;;;12543436;28;20048;-35
2024/02/18 04:43:44;;;;;;;103.40;96.43;;;8.70;99.90;;;;;;12546774;28;19956;-35
2024/02/18 04:49:46;;;;;;;107.60;100.90;;;8.80;99.90;;;;;;12586993;28;20520;-35
2024/02/18 04:55:48;;;;;;;110.82;103.47;;;8.80;99.90;;;;;;12573944;28;20751;-35
2024/02/18 05:01:50;;;;;;;112.57;105.65;;;8.80;99.90;;;;;;12572450;28;20412;-35
2024/02/18 05:07:52;;;;;;;107.95;101.10;;;8.90;99.90;;;;;;12577593;28;20497;-35
2024/02/18 05:13:54;;;;;;;103.30;96.45;;;8.90;99.90;;;;;;12580905;28;20051;-35
2024/02/18 05:19:56;;;;;;;102.70;96.43;;;8.90;99.90;;;;;;12560507;28;20049;-35
2024/02/18 05:25:58;;;;;;;101.82;95.30;;;8.90;99.90;;;;;;12550149;28;20052;-36
2024/02/18 05:32:00;;;;;;;104.07;97.20;;;8.90;99.90;;;;;;12562524;28;20044;-35
2024/02/18 05:38:02;;;;;;;107.13;100.65;;;8.90;99.90;;;;;;12555164;28;20068;-35
2024/02/18 05:44:04;;;;;;;108.03;101.13;;;8.90;99.90;;;;;;12556524;28;20040;-35
2024/02/18 05:50:06;;;;;;;108.68;102.35;;;8.90;99.90;;;;;;12569430;28;20056;-36
2024/02/18 05:56:08;;;;;;;106.72;100.53;;;8.80;99.90;;;;;;12552366;28;20041;-35
2024/02/18 06:02:10;;;;;;;108.60;101.85;;;8.80;99.90;;;;;;12555636;28;20379;-35
2024/02/18 06:08:12;;;;;;;102.70;96.55;;;8.80;99.90;;;;;;12572383;28;20449;-35
2024/02/18 06:14:15;;;;;;;100.30;94.28;;;8.80;99.90;;;;;;12570485;28;20094;-34
2024/02/18 06:20:17;;;;;;;99.05;93.00;;;8.90;99.90;;;;;;12560231;28;20053;-34
2024/02/18 06:26:18;;;;;;;99.10;93.18;;;8.90;99.90;;;;;;12572878;28;20135;-35
2024/02/18 06:32:20;;;;;;;104.20;98.10;;;9.00;99.90;;;;;;12548250;28;20041;-35
2024/02/18 06:38:22;;;;;;;102.15;96.03;;;9.10;99.90;;;;;;12562090;28;20139;-35
2024/02/18 06:44:24;;;;;;;101.45;95.40;;;9.10;99.90;;;;;;12538473;28;20187;-36
2024/02/18 06:50:26;;;;;;;105.18;98.97;;;9.10;99.90;;;;;;12579749;28;20064;-35
2024/02/18 06:56:27;;;;;;;105.60;99.70;;;9.00;99.90;;;;;;12555790;28;20056;-35
2024/02/18 07:02:29;;;;;;;102.97;97.03;;;9.00;99.90;;;;;;12561283;28;20045;-34
2024/02/18 07:08:31;;;;;;;104.95;98.78;;;9.10;99.90;;;;;;12571891;28;20120;-35
2024/02/18 07:14:33;;;;;;;106.43;100.40;;;9.20;99.90;;;;;;12573978;28;20077;-35
2024/02/18 07:20:35;;;;;;;106.43;100.30;;;9.30;99.90;;;;;;12557405;28;20048;-35
2024/02/18 07:26:37;;;;;;;107.13;101.22;;;9.30;99.90;;;;;;12566109;28;20079;-35
2024/02/18 07:32:39;;;;;;;106.78;100.88;;;9.30;99.90;;;;;;12549987;28;20051;-36
2024/02/18 07:38:41;;;;;;;105.03;99.20;;;9.30;99.90;;;;;;12570126;28;20040;-35
2024/02/18 07:44:44;;;;;;;107.57;101.90;;;9.40;99.90;;;;;;12556311;28;20079;-35
2024/02/18 07:50:46;;;;;;;104.13;98.47;;;9.50;99.90;;;;;;12558791;28;20071;-35
2024/02/18 07:56:48;;;;;;;98.45;92.97;;;9.50;99.90;;;;;;12579618;28;20048;-35
2024/02/18 08:02:50;;;;;;;103.00;97.50;;;9.60;99.90;;;;;;12565945;28;20049;-35
2024/02/18 08:08:52;;;;;;;103.63;98.03;;;9.70;99.90;;;;;;12585078;28;20409;-35
2024/02/18 08:14:54;;;;;;;107.32;101.78;;;9.90;99.90;;;;;;12571528;28;20076;-35
2024/02/18 08:20:56;;;;;;;108.65;103.05;;;10.00;99.90;;;;;;12551714;28;20059;-36
2024/02/18 08:26:57;;;;;;;104.95;99.65;;;9.90;99.90;;;;;;12549449;28;20094;-34
2024/02/18 08:33:00;;;;;;;105.35;99.95;;;10.00;99.90;;;;;;12574105;28;20500;-36
2024/02/18 08:39:02;;;;;;;108.03;102.40;;;10.00;99.90;;;;;;12562581;28;20149;-35
2024/02/18 08:45:04;;;;;;;106.40;100.85;;;10.00;99.90;;;;;;12556449;28;20481;-36
2024/02/18 08:51:06;;;;;;;110.90;105.40;;;10.00;99.90;;;;;;12551733;28;20482;-35
2024/02/18 08:57:08;;;;;;;100.45;95.25;;;9.90;99.90;;;;;;12568961;28;20051;-35
2024/02/18 09:03:10;;;;;;;101.90;96.53;;;9.80;99.90;;;;;;12573730;28;20517;-35
2024/02/18 09:09:12;;;;;;;100.78;95.65;;;9.70;99.90;;;;;;12558762;28;20049;-35
2024/02/18 09:15:14;;;;;;;95.13;90.22;;;9.70;99.90;;;;;;12562489;28;20059;-35
2024/02/18 09:21:17;;;;;;;93.15;88.40;;;9.70;99.90;;;;;;12561309;28;20100;-35
2024/02/18 09:27:19;;;;;;;90.32;85.57;;;9.80;99.90;;;;;;12571377;28;20049;-35
2024/02/18 09:33:21;;;;;;;93.07;88.38;;;9.80;99.90;;;;;;12554113;28;20041;-35
2024/02/18 09:39:23;;;;;;;91.20;86.63;;;9.80;99.90;;;;;;12564017;28;20057;-36
2024/02/18 09:45:26;;;;;;;91.05;86.35;;;9.80;99.90;;;;;;12541177;28;20514;-35
2024/02/18 09:51:29;;;;;;;86.10;81.70;;;9.80;99.90;;;;;;12558471;28;20158;-36
2024/02/18 09:57:31;;;;;;;84.03;79.60;;;9.70;99.90;;;;;;12556828;28;20048;-35
2024/02/18 10:03:33;;;;;;;82.55;78.25;;;9.70;99.90;;;;;;12554687;28;20139;-35
2024/02/18 10:09:35;;;;;;;80.43;76.25;;;9.70;99.90;;;;;;12570112;28;20045;-35
2024/02/18 10:15:37;;;;;;;78.20;73.88;;;9.60;99.90;;;;;;12574820;28;20048;-35
2024/02/18 10:21:40;;;;;;;82.03;77.78;;;9.60;99.90;;;;;;12568862;28;20107;-35
2024/02/18 10:27:42;;;;;;;81.97;77.40;;;9.60;99.90;;;;;;12535519;28;20049;-35
2024/02/18 10:33:43;;;;;;;90.13;85.35;;;9.60;99.90;;;;;;12565031;28;20409;-35
2024/02/18 10:39:49;;;;;;;87.22;82.63;;;9.60;99.90;;;;;;12561806;28;20081;-35
2024/02/18 10:45:51;;;;;;;86.03;81.53;;;9.50;99.90;;;;;;12554404;28;20056;-35
2024/02/18 10:52:20;;;;;;;87.05;82.45;;;9.50;99.90;;;;;;12595891;28;20506;-35
2024/02/18 10:58:54;;;;;;;87.00;82.30;;;9.50;99.90;;;;;;12570054;28;20067;-35
2024/02/18 11:04:56;;;;;;;84.90;80.40;;;9.40;99.90;;;;;;12577114;28;20081;-36
2024/02/18 11:10:59;;;;;;;86.43;82.00;;;9.40;99.90;;;;;;12554306;28;20071;-35
2024/02/18 11:17:02;;;;;;;92.10;87.20;;;9.40;99.90;;;;;;12573431;28;20040;-35
2024/02/18 11:23:05;;;;;;;99.53;94.13;;;9.40;99.90;;;;;;12575757;28;20409;-35
2024/02/18 11:29:07;;;;;;;87.78;83.20;;;9.40;99.90;;;;;;12537440;28;20079;-35
2024/02/18 11:35:17;;;;;;;88.05;83.35;;;9.40;99.90;;;;;;12566744;28;20044;-35
2024/02/18 11:41:24;;;;;;;81.97;77.57;;;9.30;99.90;;;;;;12576417;28;20507;-35
2024/02/18 11:47:27;;;;;;;78.70;74.63;;;9.20;99.90;;;;;;12557568;28;20516;-35
2024/02/18 11:53:29;;;;;;;71.60;67.45;;;9.10;99.90;;;;;;12568701;28;20041;-35
2024/02/18 11:59:33;;;;;;;71.13;67.10;;;9.10;99.90;;;;;;12577873;28;20508;-35
2024/02/18 12:05:35;;;;;;;76.57;72.43;;;9.00;99.90;;;;;;12575043;28;20119;-35
2024/02/18 12:11:44;;;;;;;78.47;74.18;;;9.00;99.90;;;;;;12560650;28;20052;-35
2024/02/18 12:17:48;;;;;;;75.93;71.80;;;9.00;99.90;;;;;;12579207;28;20055;-35
2024/02/18 12:23:51;;;;;;;75.32;71.18;;;9.00;99.90;;;;;;12573974;28;20055;-35
2024/02/18 12:29:55;;;;;;;73.10;69.10;;;8.90;99.90;;;;;;12533612;28;20417;-35
2024/02/18 12:35:57;;;;;;;73.35;69.38;;;9.00;99.90;;;;;;12561698;28;20053;-35
2024/02/18 12:42:01;;;;;;;74.45;70.13;;;8.90;99.90;;;;;;12553442;28;20049;-35
2024/02/18 12:48:06;;;;;;;75.88;71.78;;;8.90;99.90;;;;;;12552594;28;20048;-35
2024/02/18 12:54:13;;;;;;;74.82;70.60;;;9.00;99.90;;;;;;12549589;28;20098;-35
2024/02/18 13:00:15;;;;;;;78.80;74.28;;;9.00;99.90;;;;;;12575755;28;20060;-35
2024/02/18 13:06:22;;;;;;;86.53;81.72;;;9.10;99.90;;;;;;12543471;28;20079;-35
2024/02/18 13:12:26;;;;;;;82.63;78.30;;;9.10;99.90;;;;;;12553075;28;20089;-35
2024/02/18 13:18:29;;;;;;;79.90;75.90;;;9.10;99.90;;;;;;12566414;28;20056;-35
2024/02/18 13:24:31;;;;;;;86.18;81.88;;;9.20;99.90;;;;;;12543642;28;20048;-35
2024/02/18 13:30:32;;;;;;;93.30;88.55;;;9.20;99.90;;;;;;12547725;28;20045;-35
2024/02/18 13:36:44;;;;;;;92.95;88.15;;;9.30;99.90;;;;;;12588666;28;20040;-35
2024/02/18 13:42:46;;;;;;;91.13;86.55;;;9.20;99.90;;;;;;12587655;28;20052;-35
2024/02/18 13:48:49;;;;;;;84.80;80.35;;;9.20;99.90;;;;;;12578070;28;20060;-35
2024/02/18 13:54:51;;;;;;;86.07;81.77;;;9.10;99.90;;;;;;12558427;28;20041;-35
2024/02/18 14:00:53;;;;;;;90.05;85.13;;;9.20;99.90;;;;;;12588327;28;20056;-35
2024/02/18 14:06:55;;;;;;;91.63;87.13;;;9.20;99.90;;;;;;12556483;28;20040;-35
2024/02/18 14:12:57;;;;;;;101.13;95.82;;;9.10;99.90;;;;;;12555148;28;20052;-35
2024/02/18 14:18:59;;;;;;;87.70;83.00;;;9.10;99.90;;;;;;12560018;28;20405;-35
2024/02/18 14:25:02;;;;;;;86.78;82.25;;;9.10;99.90;;;;;;12569571;28;20048;-34
2024/02/18 14:31:04;;;;;;;82.38;78.35;;;9.00;99.90;;;;;;12532829;28;20056;-34
2024/02/18 14:37:06;;;;;;;80.45;76.38;;;9.00;99.90;;;;;;12563042;28;20147;-35
2024/02/18 14:43:08;;;;;;;80.93;76.82;;;8.90;99.90;;;;;;12553997;28;20505;-35
2024/02/18 14:49:10;;;;;;;77.05;73.18;;;8.90;99.90;;;;;;12542987;28;20045;-35
2024/02/18 14:55:12;;;;;;;75.30;71.60;;;8.80;99.90;;;;;;12566442;28;20045;-35
2024/02/18 15:01:14;;;;;;;77.32;73.53;;;8.70;99.90;;;;;;12555222;28;20144;-35
2024/02/18 15:07:16;;;;;;;85.78;81.47;;;8.70;99.90;;;;;;12561550;28;20059;-35
2024/02/18 15:13:22;;;;;;;86.85;82.45;;;8.70;99.90;;;;;;12575678;28;20079;-34
2024/02/18 15:19:24;;;;;;;74.70;70.95;;;8.60;99.90;;;;;;12588279;28;20068;-35
2024/02/18 15:25:26;;;;;;;80.65;76.65;;;8.50;99.90;;;;;;12545288;28;20049;-35
2024/02/18 15:31:28;;;;;;;75.55;71.78;;;8.50;99.90;;;;;;12565205;28;20109;-34
2024/02/18 15:37:29;;;;;;;77.00;73.13;;;8.50;99.90;;;;;;12555196;28;20095;-35
2024/02/18 15:43:31;;;;;;;75.95;72.10;;;8.50;99.90;;;;;;12575699;28;20128;-35
2024/02/18 15:49:33;;;;;;;75.38;71.35;;;8.40;99.90;;;;;;12579174;28;20056;-35
2024/02/18 15:55:36;;;;;;;67.38;63.78;;;8.40;99.90;;;;;;12547166;28;20047;-35
2024/02/18 16:01:54;;;;;;;70.60;66.80;;;8.30;99.90;;;;;;12570137;28;20049;-35
2024/02/18 16:07:56;;;;;;;66.30;62.90;;;8.20;99.90;;;;;;12557292;28;20136;-35
2024/02/18 16:13:58;;;;;;;71.38;67.68;;;8.20;99.90;;;;;;12553491;28;20060;-35
2024/02/18 16:20:00;;;;;;;73.55;69.80;;;8.10;99.90;;;;;;12551119;28;20465;-35
2024/02/18 16:26:02;;;;;;;70.43;66.68;;;8.10;99.90;;;;;;12540852;28;20495;-35
2024/02/18 16:32:09;;;;;;;65.45;61.80;;;8.10;99.90;;;;;;12573301;28;20045;-35
2024/02/18 16:38:11;;;;;;;60.88;57.70;;;8.00;99.90;;;;;;12567294;28;20049;-35
2024/02/18 16:44:14;;;;;;;67.00;63.50;;;8.00;99.90;;;;;;12555071;28;20182;-34
2024/02/18 16:50:16;;;;;;;71.10;67.50;;;8.00;99.90;;;;;;12555280;28;20105;-35
2024/02/18 16:56:21;;;;;;;70.22;66.53;;;7.90;99.90;;;;;;12567928;28;20053;-35
2024/02/18 17:02:23;;;;;;;81.18;77.07;;;7.80;99.90;;;;;;12567117;28;20060;-35
2024/02/18 17:08:25;;;;;;;88.43;83.88;;;7.90;99.90;;;;;;12562020;28;20128;-35
2024/02/18 17:14:27;;;;;;;71.65;67.95;;;7.80;99.90;;;;;;12563602;28;20051;-35
2024/02/18 17:20:30;;;;;;;75.70;72.00;;;7.80;99.90;;;;;;12561467;28;20060;-35
2024/02/18 17:26:32;;;;;;;85.00;80.70;;;7.80;99.90;;;;;;12530335;28;20394;-35
2024/02/18 17:32:34;;;;;;;81.65;77.53;;;7.80;99.90;;;;;;12535151;28;20117;-34
2024/02/18 17:38:36;;;;;;;87.57;83.07;;;7.80;99.90;;;;;;12534195;28;20477;-35
2024/02/18 17:44:37;;;;;;;81.82;77.53;;;7.80;99.90;;;;;;12527774;28;20079;-35
2024/02/18 17:50:40;;;;;;;86.55;82.28;;;7.80;99.90;;;;;;12542669;28;20550;-35
2024/02/18 17:56:45;;;;;;;80.68;76.68;;;7.80;99.90;;;;;;12566651;28;20661;-35
2024/02/18 18:02:47;;;;;;;93.18;88.65;;;7.90;99.90;;;;;;12562135;28;20087;-35
2024/02/18 18:08:49;;;;;;;84.60;80.47;;;8.00;99.90;;;;;;12530626;28;20053;-35
2024/02/18 18:14:52;;;;;;;79.45;75.55;;;8.10;99.90;;;;;;12579471;28;20405;-35
2024/02/18 18:20:54;;;;;;;94.57;89.97;;;8.20;99.90;;;;;;12559955;28;20109;-35
2024/02/18 18:26:55;;;;;;;96.80;92.03;;;8.30;99.90;;;;;;12573160;28;20653;-35
2024/02/18 18:32:57;;;;;;;107.65;102.50;;;8.30;99.90;;;;;;12573559;28;20087;-35
2024/02/18 18:38:59;;;;;;;140.43;133.63;;;8.40;99.90;;;;;;12555041;28;20044;-35
2024/02/18 18:45:01;;;;;;;110.13;104.82;;;8.40;99.90;;;;;;12566677;28;20533;-35
2024/02/18 18:51:03;;;;;;;124.65;118.55;;;8.40;99.90;;;;;;12587688;28;20087;-35
2024/02/18 18:57:05;;;;;;;113.93;108.18;;;8.50;99.90;;;;;;12560066;28;20044;-35
2024/02/18 19:03:06;;;;;;;128.60;122.10;;;8.60;99.90;;;;;;12564814;28;20068;-35
2024/02/18 19:09:08;;;;;;;138.73;131.65;;;8.70;99.90;;;;;;12571828;28;20091;-34
2024/02/18 19:15:10;;;;;;;133.82;127.15;;;8.70;99.90;;;;;;12566308;28;20036;-35
2024/02/18 19:21:12;;;;;;;135.95;129.05;;;8.70;99.90;;;;;;12571207;28;20394;-35
2024/02/18 19:27:14;;;;;;;148.40;141.00;;;8.80;99.90;;;;;;12568028;28;20567;-34
2024/02/18 19:33:16;;;;;;;139.95;132.98;;;8.80;99.90;;;;;;12542909;28;20099;-34
2024/02/18 19:39:18;;;;;;;144.38;137.13;;;8.80;99.90;;;;;;12590218;28;20053;-35
2024/02/18 19:45:21;;;;;;;155.55;147.63;;;8.80;99.90;;;;;;12578900;28;20060;-34
2024/02/18 19:51:23;;;;;;;155.48;147.57;;;8.90;99.90;;;;;;12574877;28;20686;-35
2024/02/18 19:57:25;;;;;;;161.13;152.82;;;8.90;99.90;;;;;;12567477;28;20045;-35
2024/02/18 20:03:28;;;;;;;164.32;155.90;;;8.90;99.90;;;;;;12565971;28;20075;-35
2024/02/18 20:09:32;;;;;;;142.10;134.85;;;9.00;99.90;;;;;;12575264;28;20059;-35
2024/02/18 20:15:34;;;;;;;150.80;143.15;;;9.00;99.90;;;;;;12569935;28;20044;-35
2024/02/18 20:21:36;;;;;;;147.20;139.68;;;9.10;99.90;;;;;;12550709;28;20052;-35
2024/02/18 20:27:38;;;;;;;155.93;147.95;;;9.10;99.90;;;;;;12568141;28;20048;-35
2024/02/18 20:33:40;;;;;;;148.40;140.90;;;9.20;99.90;;;;;;12551317;28;20390;-35
2024/02/18 20:39:42;;;;;;;136.20;129.45;;;9.10;99.90;;;;;;12559427;28;20053;-35
2024/02/18 20:45:44;;;;;;;160.35;152.15;;;9.10;99.90;;;;;;12563213;28;20101;-35
2024/02/18 20:51:46;;;;;;;150.43;142.85;;;9.10;99.90;;;;;;12583328;28;20040;-35
2024/02/18 20:57:48;;;;;;;146.15;138.70;;;9.00;99.90;;;;;;12558546;28;20049;-35
2024/02/18 21:03:50;;;;;;;157.68;149.60;;;9.00;99.90;;;;;;12582923;28;20057;-35
2024/02/18 21:09:52;;;;;;;160.65;152.48;;;8.90;99.90;;;;;;12543158;28;20453;-35
2024/02/18 21:15:54;;;;;;;157.35;149.32;;;8.90;99.90;;;;;;12569377;28;20060;-35
2024/02/18 21:21:56;;;;;;;167.63;158.98;;;8.90;99.90;;;;;;12560906;28;20067;-35
2024/02/18 21:27:57;;;;;;;165.65;157.15;;;8.80;99.90;;;;;;12573697;28;20049;-35
2024/02/18 21:34:00;;;;;;;168.13;159.63;;;8.80;99.90;;;;;;12571819;28;20083;-35
2024/02/18 21:40:02;;;;;;;153.30;145.52;;;8.80;99.90;;;;;;12559604;28;20060;-35
2024/02/18 21:46:04;;;;;;;159.57;151.48;;;8.70;99.90;;;;;;12553859;28;20055;-35
2024/02/18 21:52:06;;;;;;;165.98;157.50;;;8.60;99.90;;;;;;12549615;28;20515;-34
2024/02/18 21:58:08;;;;;;;160.38;152.07;;;8.50;99.90;;;;;;12562918;28;20490;-35
2024/02/18 22:04:10;;;;;;;163.80;155.52;;;8.50;99.90;;;;;;12553485;28;20064;-35
2024/02/18 22:10:12;;;;;;;215.70;204.82;;;8.40;99.90;;;;;;12543914;28;20088;-35
2024/02/18 22:16:13;;;;;;;191.60;182.02;;;8.40;99.90;;;;;;12569152;28;20139;-35
2024/02/18 22:22:16;;;;;;;189.50;179.90;;;8.40;99.90;;;;;;12578978;28;20057;-34
2024/02/18 22:28:17;;;;;;;163.35;154.98;;;8.40;99.90;;;;;;12593582;28;20055;-35
2024/02/18 22:34:19;;;;;;;161.75;153.55;;;8.30;99.90;;;;;;12560308;28;20124;-35
2024/02/18 22:40:21;;;;;;;157.75;149.73;;;8.30;99.90;;;;;;12556704;28;20077;-35
2024/02/18 22:46:23;;;;;;;148.35;140.80;;;8.30;99.90;;;;;;12559073;28;20481;-35
2024/02/18 22:52:25;;;;;;;148.95;141.45;;;8.20;99.90;;;;;;12562599;28;20429;-35
2024/02/18 22:58:27;;;;;;;157.27;149.27;;;8.20;99.90;;;;;;12577467;28;20044;-35
2024/02/18 23:04:29;;;;;;;149.60;142.10;;;8.10;99.90;;;;;;12566345;28;20056;-35
2024/02/18 23:10:30;;;;;;;139.75;132.85;;;8.10;99.90;;;;;;12565537;28;20056;-35
2024/02/18 23:16:32;;;;;;;134.38;127.57;;;8.00;99.90;;;;;;12574694;28;20087;-35
2024/02/18 23:22:35;;;;;;;132.63;125.95;;;8.00;99.90;;;;;;12541882;28;20068;-35
2024/02/18 23:28:37;;;;;;;146.52;139.05;;;8.00;99.90;;;;;;12569032;28;20139;-35
2024/02/18 23:34:39;;;;;;;153.48;145.70;;;7.90;99.90;;;;;;12540464;28;20132;-35
2024/02/18 23:40:41;;;;;;;145.05;137.63;;;7.90;99.90;;;;;;12576506;28;20052;-35
2024/02/18 23:46:43;;;;;;;143.80;136.45;;;7.90;99.90;;;;;;12548785;28;20056;-35
2024/02/18 23:52:45;;;;;;;144.77;137.35;;;7.90;99.90;;;;;;12560281;28;20069;-35
2024/02/18 23:58:47;;;;;;;154.05;145.95;;;7.90;99.90;;;;;;12544480;28;20044;-35
